x

South Bermuda - 300 Nm Sse Of Bermuda (41049) Wave Buoy

12:50pm - Fri 31st Jul 2015 All times are UTC.

  • Sig Wave height 3.6ft
  • Swell Direction
  • Peak Period 11s
  • Average Period 7s
  • Wind
    4mph, 7mph gusts
  • Sea Temp 85°f
  • Air Temp 84°f
  • Sea Pressure 1023mb

More Historic Weather Station data

Upgrade to MSW Pro to gain access to the past 30 days of data for over 8000 Wavebouys and Weather Stations around the globe.

Join Pro

Comparision Forecast

View Surf forecast
   
Fri 07/31 12:50pm 3.5ft 11s 7s 4 7 mph 1023mb 85f 84f
11:50am 3.5ft 11s 7s 7 9 mph 1022.8mb 85f 84f
10:50am 3.5ft 10s 7s 7 9 mph 1022.6mb 85f 84f
9:50am 4ft 10s 7s 7 9 mph 1022mb 85f 83f
8:50am 4ft 11s 7s 4 7 mph 1021.6mb 85f 83f
7:50am 4ft 8s 7s 4
mph
1021.4mb 85f 83f
6:50am 3.5ft 8s 7s 4 7 mph 1021.6mb 85f 83f
5:50am 4ft 8s 7s 4
mph
1022mb 85f 84f
4:50am 3.5ft 8s 7s 4 7 mph 1022.1mb 85f 84f
3:50am 4ft 11s 7s 4 7 mph 1022.4mb 86f 84f
2:50am 3.5ft 9s 7s 4
mph
1022.7mb 86f 84f
1:50am 3.5ft 9s 7s 4 7 mph 1022.6mb 86f 84f
12:50am 4ft 10s 7s 4 7 mph 1022.3mb 86f 84f
Thu 07/30 11:50pm 3.5ft 9s 7s 4 7 mph 1021.9mb 86f 84f
10:50pm 3.5ft 8s 7s 4
mph
1021.7mb 86f 84f
9:50pm 4ft 9s 7s 4 7 mph 1021.5mb 87f 84f
8:50pm 3.5ft 9s 7s 4 7 mph 1021.3mb 87f 84f
7:50pm 3.5ft 9s 7s 4 7 mph 1021.4mb 87f 84f
6:50pm 4ft 8s 7s 7 9 mph 1021.8mb 87f 84f
5:50pm 3.5ft 8s 7s 7 9 mph 1022.4mb 87f 83f
4:50pm 3.5ft 8s  -  11 13 mph 1022.8mb 87f 83f
3:50pm 3.5ft 8s 7s 4 7 mph 1023mb 87f 83f
2:50pm 3.5ft 10s 7s  -  2 mph 1022.9mb 86f 84f
1:50pm 3.5ft 9s 7s 2 4 mph 1022.8mb 85f 84f
12:50pm 4ft 9s 7s 7 9 mph 1022.4mb 85f 83f
11:50am 3.5ft 10s 7s 4 7 mph 1022mb 85f 84f
10:50am 3.5ft 9s 7s 7 9 mph 1021.3mb 85f 84f
9:50am 4ft 9s 7s 7 9 mph 1020.7mb 85f 83f
8:50am 4.5ft 9s 7s 7
mph
1020.3mb 85f 83f
7:50am 4ft 9s 7s 2 4 mph 1020.2mb 85f 83f
6:50am 4ft 8s 7s 4 7 mph 1020.1mb 85f 83f
5:50am 4.5ft 8s 7s 4 7 mph 1020.5mb 85f 83f
4:50am 4.5ft 9s 7s 4 7 mph 1021.2mb 85f 82f
3:50am 4ft 10s 7s 9
mph
1021.7mb 86f 82f
2:50am 4ft 8s 7s 2 4 mph 1022.1mb 86f 83f
1:50am 4.5ft 9s 7s 2
mph
1021.9mb 86f 83f
12:50am 4.5ft 8s 7s 2 4 mph 1021.7mb 86f 84f
Wed 07/29 11:50pm 4.5ft 8s 7s 4
mph
1021.1mb 86f 84f
10:50pm 4.5ft 8s 7s 11 16 mph 1020.5mb 86f 84f
9:50pm 4.5ft 9s 7s 7 9 mph 1020mb 86f 85f
8:50pm 4ft 9s 7s 7 9 mph 1019.7mb 86f 85f
7:50pm 4.5ft 9s 7s 9
mph
1019.8mb 86f 85f
6:50pm 4.5ft 8s 7s 9 11 mph 1019.8mb 86f 84f
5:50pm 4.5ft 8s 7s 9 11 mph 1020.2mb 86f 84f
4:50pm 3.5ft 8s 7s 9 11 mph 1020.2mb 86f 83f
3:50pm 4ft 8s 7s 9 11 mph 1020.4mb 86f 83f
2:50pm 4ft 8s 7s 7 9 mph 1020.3mb 86f 83f
1:50pm 3.5ft 8s 7s 7 9 mph 1020.3mb 85f 83f
12:50pm 3.5ft 8s 7s 9
mph
1020.1mb 85f 82f
11:50am 3.5ft 7s 7s  -  2 mph 1019.9mb 85f 84f
10:50am 3.5ft 8s 7s 2 4 mph 1019.5mb 85f 83f
9:50am 3.5ft 8s 6s 2 4 mph 1019.1mb 85f 83f
8:50am 3ft 8s 6s 2 4 mph 1018.8mb 85f 83f
7:50am 3.5ft 8s 6s 4 7 mph 1018.8mb 85f 83f
6:50am 3.5ft 8s 7s 7 9 mph 1018.9mb 85f 83f
5:50am 2.5ft 9s 6s 7 9 mph 1019mb 85f 83f
4:50am 3ft 8s 6s 7 9 mph 1019.5mb 85f 83f
3:50am 2.5ft 8s 6s 9 11 mph 1020mb 85f 83f
2:50am 3ft 9s 7s 9 11 mph 1020.4mb 85f 83f
1:50am 3.5ft 10s 7s 9 11 mph 1020.4mb 85f 84f
12:50am 2.5ft 9s 6s 7 11 mph 1020mb 86f 84f
Tue 07/28 11:50pm 2.5ft 10s 7s 7 11 mph 1019.6mb 86f 84f
10:50pm 3ft 9s 7s 7 9 mph 1019.3mb 86f 84f
9:50pm 3ft 10s 7s 9
mph
1019.1mb 86f 84f
8:50pm 2.5ft 8s 7s 9 11 mph 1018.9mb 86f 84f
7:50pm 3ft 10s 7s 9 11 mph 1019.1mb 87f 84f
6:50pm 2.5ft 10s 7s 9 11 mph 1019.3mb 87f 84f
5:50pm 2.5ft 11s 7s 7 9 mph 1019.9mb 87f 84f
4:50pm 2.5ft 10s 7s 7 9 mph 1020.1mb 87f 83f
3:50pm 2.5ft 10s 7s 7 11 mph 1020.5mb 86f 83f
2:50pm 2.5ft 10s 7s 7 9 mph 1020.8mb 86f 83f
1:50pm 2.5ft 10s 6s 7 9 mph 1020.5mb 85f 83f
12:50pm 2.5ft 10s 7s 7 9 mph 1020.2mb 85f 83f
11:50am 2.5ft 10s 7s 4
mph
1020.2mb 85f 83f
10:50am 2.5ft 10s 7s 2 4 mph 1019.8mb 85f 83f
9:50am 2.5ft 10s 7s 2 4 mph 1019.5mb 85f 83f
8:50am 2.5ft 10s 6s 4 7 mph 1019.3mb 85f 83f
7:50am 2.5ft 10s 6s 4 7 mph 1019.3mb 85f 83f
6:50am 2.5ft 10s 6s 2 4 mph 1019.3mb 85f 83f
5:50am 2.5ft 11s 6s 4 7 mph 1019.9mb 85f 83f
4:50am 2.5ft 8s 6s 4 7 mph 1020.2mb 85f 83f
3:50am 2.5ft 10s 6s 4 7 mph 1020.9mb 85f 83f
2:50am 2.5ft 11s 6s 4 7 mph 1021.3mb 86f 83f
1:50am 2.5ft 10s 6s 4 7 mph 1021.5mb 86f 83f
12:50am 2.5ft 11s 6s 7 9 mph 1021.5mb 86f 84f
Mon 07/27 11:50pm 2.5ft 9s 6s 4 7 mph 1021mb 86f 84f
10:50pm 2.5ft 8s 6s 4 7 mph 1020.6mb 86f 84f
9:50pm 3ft 10s 6s 7 9 mph 1020.1mb 86f 84f
8:50pm 2.5ft 9s 6s 7 9 mph 1020.2mb 87f 84f
7:50pm 3ft 10s 6s 7 9 mph 1020.1mb 87f 84f
6:50pm 3ft 10s 6s 7 9 mph 1020.3mb 87f 84f
5:50pm 3ft 10s 6s 7 9 mph 1020.8mb 87f 84f
4:50pm 3ft 11s 6s 7 9 mph 1021.2mb 87f 84f
3:50pm 3.5ft 6s 6s 7
mph
1021.6mb 86f 83f
2:50pm 3.5ft 6s 6s 4 7 mph 1021.5mb 86f 83f